createdAt,value
2019-03-16T00:04:34.736Z,4.90
2019-03-16T00:09:40.389Z,5.03
2019-03-16T00:14:46.002Z,4.57
2019-03-16T00:19:51.527Z,4.43
2019-03-16T00:24:57.014Z,4.73
2019-03-16T00:30:02.495Z,3.97
2019-03-16T00:35:08.124Z,3.93
2019-03-16T00:40:13.643Z,3.73
2019-03-16T00:45:19.229Z,4.03
2019-03-16T00:50:24.718Z,3.90
2019-03-16T00:55:30.285Z,4.13
2019-03-16T01:00:35.776Z,3.97
2019-03-16T01:05:41.362Z,3.90
2019-03-16T01:10:46.837Z,3.33
2019-03-16T01:15:52.357Z,3.30
2019-03-16T01:20:57.923Z,3.83
2019-03-16T01:26:03.495Z,2.93
2019-03-16T01:31:09.058Z,3.17
2019-03-16T01:36:14.557Z,3.40
2019-03-16T01:41:20.049Z,2.67
2019-03-16T01:46:25.551Z,2.73
2019-03-16T01:51:31.098Z,2.73
2019-03-16T01:56:36.641Z,2.93
2019-03-16T02:01:42.115Z,3.40
2019-03-16T02:06:47.634Z,2.57
2019-03-16T02:11:53.115Z,3.13
2019-03-16T02:16:58.639Z,2.60
2019-03-16T02:22:04.144Z,2.90
2019-03-16T02:27:09.622Z,2.80
2019-03-16T02:32:15.133Z,2.87
2019-03-16T02:37:20.601Z,2.47
2019-03-16T02:42:26.088Z,2.83
2019-03-16T02:47:31.608Z,2.93
2019-03-16T02:52:37.106Z,2.83
2019-03-16T02:57:42.581Z,3.63
2019-03-16T03:02:48.057Z,3.37
2019-03-16T03:07:53.521Z,2.90
2019-03-16T03:12:59.078Z,3.13
2019-03-16T03:18:04.663Z,2.87
2019-03-16T03:23:10.134Z,2.93
2019-03-16T03:28:15.633Z,2.43
2019-03-16T03:33:21.130Z,3.03
2019-03-16T03:38:26.620Z,3.37
2019-03-16T03:43:32.097Z,3.07
2019-03-16T03:48:37.711Z,3.03
2019-03-16T03:53:43.191Z,3.10
2019-03-16T03:58:48.679Z,3.67
2019-03-16T04:03:54.168Z,3.70
2019-03-16T04:08:59.745Z,4.63
2019-03-16T04:14:05.303Z,4.03
2019-03-16T04:19:10.880Z,4.10
2019-03-16T04:24:16.474Z,4.10
2019-03-16T04:29:21.935Z,3.87
2019-03-16T04:34:29.584Z,3.67
2019-03-16T04:39:34.588Z,3.90
2019-03-16T04:44:40.085Z,3.60
2019-03-16T04:49:45.576Z,3.43
2019-03-16T04:54:51.045Z,3.50
2019-03-16T04:59:56.556Z,2.80
2019-03-16T05:05:02.109Z,2.80
2019-03-16T05:10:07.994Z,2.80
2019-03-16T05:15:13.519Z,2.37
2019-03-16T05:20:19.026Z,2.53
2019-03-16T05:25:24.554Z,2.03
2019-03-16T05:30:30.118Z,2.23
2019-03-16T05:35:35.557Z,2.13
2019-03-16T05:40:41.041Z,2.37
2019-03-16T05:45:46.571Z,2.10
2019-03-16T05:50:52.064Z,2.40
2019-03-16T05:55:57.624Z,2.40
2019-03-16T06:01:03.094Z,2.47
2019-03-16T06:06:08.612Z,2.37
2019-03-16T06:11:14.129Z,2.20
2019-03-16T06:16:19.654Z,2.00
2019-03-16T06:21:25.119Z,1.77
2019-03-16T06:26:30.573Z,1.90
2019-03-16T06:31:36.057Z,1.90
2019-03-16T06:36:41.543Z,2.10
2019-03-16T06:41:47.018Z,2.33
2019-03-16T06:46:52.567Z,2.50
2019-03-16T06:51:58.135Z,2.80
2019-03-16T06:57:03.689Z,2.87
2019-03-16T07:02:09.161Z,3.23
2019-03-16T07:07:14.666Z,2.70
2019-03-16T07:12:20.199Z,2.37
2019-03-16T07:17:25.705Z,1.30
2019-03-16T07:22:31.268Z,1.50
2019-03-16T07:27:36.834Z,1.50
2019-03-16T07:32:42.360Z,1.47
2019-03-16T07:37:47.863Z,1.40
2019-03-16T07:42:53.368Z,1.30
2019-03-16T07:47:58.893Z,1.40
2019-03-16T07:53:04.626Z,1.50
2019-03-16T07:58:10.201Z,1.60
2019-03-16T08:03:15.698Z,1.70
2019-03-16T08:08:21.173Z,1.60
2019-03-16T08:13:26.787Z,1.70
2019-03-16T08:18:32.400Z,2.73
2019-03-16T08:23:37.865Z,2.83
2019-03-16T08:28:43.343Z,2.80
2019-03-16T08:33:49.151Z,3.00
2019-03-16T08:38:54.636Z,2.60
2019-03-16T08:44:00.172Z,3.63
2019-03-16T08:49:05.742Z,4.10
2019-03-16T08:54:11.303Z,3.07
2019-03-16T08:59:16.848Z,2.83
2019-03-16T09:04:22.393Z,2.80
2019-03-16T09:09:27.869Z,2.50
2019-03-16T09:14:33.505Z,2.33
2019-03-16T09:19:39.079Z,2.97
2019-03-16T09:24:44.574Z,2.50
2019-03-16T09:29:50.042Z,2.00
2019-03-16T09:34:55.552Z,1.73
2019-03-16T09:40:01.065Z,1.60
2019-03-16T09:45:07.287Z,1.80
2019-03-16T09:50:12.886Z,1.80
2019-03-16T09:55:18.358Z,1.50
2019-03-16T10:00:23.918Z,1.80
2019-03-16T10:05:29.422Z,1.83
2019-03-16T10:10:34.982Z,1.50
2019-03-16T10:15:40.559Z,1.50
2019-03-16T10:20:46.318Z,1.20
2019-03-16T10:25:53.662Z,1.20
2019-03-16T10:30:59.255Z,0.97
2019-03-16T10:36:04.822Z,0.90
2019-03-16T10:41:10.354Z,1.10
2019-03-16T10:46:15.908Z,1.20
2019-03-16T10:51:21.424Z,1.50
2019-03-16T10:56:26.921Z,1.50
2019-03-16T11:01:32.497Z,1.17
2019-03-16T11:06:38.012Z,1.00
2019-03-16T11:11:43.567Z,1.23
2019-03-16T11:16:49.179Z,1.20
2019-03-16T11:21:54.683Z,1.10
2019-03-16T11:27:00.264Z,1.40
2019-03-16T11:32:05.784Z,1.40
2019-03-16T11:37:11.273Z,1.60
2019-03-16T11:42:16.946Z,1.00
2019-03-16T11:47:22.511Z,1.10
2019-03-16T11:52:28.023Z,1.13
2019-03-16T11:57:33.611Z,1.10
2019-03-16T12:02:39.149Z,1.13
2019-03-16T12:07:46.657Z,1.30
2019-03-16T12:12:52.746Z,0.93
2019-03-16T12:17:58.222Z,1.40
2019-03-16T12:23:04.084Z,1.10
2019-03-16T12:28:09.790Z,1.10
2019-03-16T12:33:15.673Z,1.30
2019-03-16T12:38:21.228Z,1.60
2019-03-16T12:43:26.836Z,1.63
2019-03-16T12:48:32.587Z,1.23
2019-03-16T12:53:39.629Z,1.40
2019-03-16T12:58:45.770Z,1.40
2019-03-16T13:03:51.282Z,1.43
2019-03-16T13:08:56.807Z,1.80
2019-03-16T13:14:02.287Z,1.70
2019-03-16T13:19:07.805Z,1.47
2019-03-16T13:24:13.314Z,1.70
2019-03-16T13:29:19.026Z,1.90
2019-03-16T13:34:24.504Z,1.43
2019-03-16T13:39:30.072Z,1.40
2019-03-16T13:44:35.625Z,1.40
2019-03-16T13:49:41.232Z,1.40
2019-03-16T13:54:46.742Z,1.47
2019-03-16T13:59:52.240Z,1.60
2019-03-16T14:04:57.949Z,1.40
2019-03-16T14:10:03.516Z,1.43
2019-03-16T14:15:09.127Z,1.40
2019-03-16T14:20:15.250Z,1.73
2019-03-16T14:25:20.761Z,1.90
2019-03-16T14:30:40.364Z,1.63
2019-03-16T14:35:33.403Z,1.40
2019-03-16T14:40:38.897Z,1.83
2019-03-16T14:45:44.543Z,1.60
2019-03-16T14:50:50.029Z,1.70
2019-03-16T14:55:56.463Z,1.20
2019-03-16T15:01:02.003Z,1.50
2019-03-16T15:06:07.564Z,1.60
2019-03-16T15:11:13.210Z,1.60
2019-03-16T15:16:18.792Z,1.47
2019-03-16T15:21:24.289Z,1.80
2019-03-16T15:26:29.854Z,1.70
2019-03-16T15:31:35.407Z,1.80
2019-03-16T15:36:41.215Z,1.40
2019-03-16T15:41:46.750Z,1.33
2019-03-16T15:46:52.326Z,1.97
2019-03-16T15:51:57.940Z,1.60
2019-03-16T15:57:03.414Z,1.60
2019-03-16T16:02:08.943Z,1.60
2019-03-16T16:07:14.488Z,1.50
2019-03-16T16:12:19.956Z,1.57
2019-03-16T16:17:25.705Z,1.43
2019-03-16T16:22:31.232Z,1.90
2019-03-16T16:27:36.820Z,1.87
2019-03-16T16:32:42.385Z,1.80
2019-03-16T16:37:48.113Z,1.60
2019-03-16T16:42:53.641Z,1.70
2019-03-16T16:47:59.215Z,1.43
2019-03-16T16:53:04.782Z,1.60
2019-03-16T16:58:10.270Z,1.83
2019-03-16T17:03:15.777Z,1.73
2019-03-16T17:08:21.348Z,2.17
2019-03-16T17:13:27.002Z,2.30
2019-03-16T17:18:32.540Z,2.60
2019-03-16T17:23:38.108Z,2.00
2019-03-16T17:28:43.594Z,2.17
2019-03-16T17:33:49.144Z,2.20
2019-03-16T17:38:54.893Z,2.50
2019-03-16T17:44:00.371Z,2.47
2019-03-16T17:49:05.967Z,2.43
2019-03-16T17:54:11.531Z,2.50
2019-03-16T17:59:17.044Z,3.30
2019-03-16T18:04:22.656Z,2.90
2019-03-16T18:09:28.135Z,2.93
2019-03-16T18:14:33.630Z,3.10
2019-03-16T18:19:39.123Z,3.00
2019-03-16T18:24:44.714Z,3.23
2019-03-16T18:29:50.277Z,3.33
2019-03-16T18:34:55.782Z,3.10
2019-03-16T18:40:01.257Z,3.03
2019-03-16T18:45:08.628Z,2.80
2019-03-16T18:50:14.200Z,2.93
2019-03-16T18:55:19.813Z,3.03
2019-03-16T19:00:25.350Z,3.30
2019-03-16T19:05:30.863Z,2.80
2019-03-16T19:10:36.590Z,2.70
2019-03-16T19:15:42.164Z,3.57
2019-03-16T19:20:47.806Z,3.13
2019-03-16T19:25:53.353Z,3.20
2019-03-16T19:30:58.835Z,2.87
2019-03-16T19:36:04.386Z,3.13
2019-03-16T19:41:09.845Z,2.70
2019-03-16T19:46:15.482Z,2.97
2019-03-16T19:51:20.936Z,3.57
2019-03-16T19:56:26.451Z,2.90
2019-03-16T20:01:31.899Z,2.80
2019-03-16T20:06:37.385Z,3.10
2019-03-16T20:11:42.922Z,3.37
2019-03-16T20:16:48.424Z,2.80
2019-03-16T20:21:53.919Z,3.40
2019-03-16T20:26:59.422Z,4.10
2019-03-16T20:32:04.911Z,3.73
2019-03-16T20:37:10.431Z,2.90
2019-03-16T20:42:16.264Z,3.00
2019-03-16T20:47:21.848Z,2.87
2019-03-16T20:52:27.360Z,3.00
2019-03-16T20:57:32.876Z,2.87
2019-03-16T21:02:38.391Z,2.97
2019-03-16T21:07:43.879Z,2.90
2019-03-16T21:12:49.334Z,2.80
2019-03-16T21:17:55.976Z,2.73
2019-03-16T21:23:01.498Z,2.63
2019-03-16T21:28:07.003Z,3.00
2019-03-16T21:33:12.492Z,2.93
2019-03-16T21:38:18.007Z,2.50
2019-03-16T21:43:23.526Z,2.53
2019-03-16T21:48:29.103Z,2.60
2019-03-16T21:53:34.598Z,2.73
2019-03-16T21:58:40.093Z,3.07
2019-03-16T22:03:45.604Z,2.70
2019-03-16T22:08:51.080Z,2.30
2019-03-16T22:13:56.656Z,2.60
2019-03-16T22:19:02.155Z,2.57
2019-03-16T22:24:07.613Z,2.33
2019-03-16T22:29:13.099Z,2.40
2019-03-16T22:34:18.607Z,2.30
2019-03-16T22:39:24.092Z,2.20
2019-03-16T22:44:29.590Z,2.23
2019-03-16T22:49:35.085Z,2.43
2019-03-16T22:54:40.537Z,2.23
2019-03-16T22:59:46.011Z,2.10
2019-03-16T23:04:51.503Z,2.17
2019-03-16T23:09:57.040Z,2.30
2019-03-16T23:15:02.519Z,2.33
2019-03-16T23:20:08.049Z,2.37
2019-03-16T23:25:13.649Z,2.30
2019-03-16T23:30:19.157Z,2.30
2019-03-16T23:35:24.617Z,1.90
2019-03-16T23:40:30.105Z,2.33
2019-03-16T23:45:35.645Z,2.00
2019-03-16T23:50:41.164Z,2.10
2019-03-16T23:55:46.647Z,1.70
